Salvador Airport, Brazil

11:11 PM -03 on April 28, 2017 (GMT -0300)
DEP. L. E. Magalhaes International | | Change Station

Elev 20 ft 12.90 °S, 38.33 °W | Updated 11 minutes ago

Partly Cloudy
Partly Cloudy
82 °F
Feels Like 87 °F
N
10
Wind Variable Wind from SSE

Today
High -- | Low -- °F
--% Chance of Precip.
Yesterday
High -- | Low -- °F
Precip. -- in
Pressure 30.01 in
Visibility 6.2 miles
Clouds Scattered Clouds 2300 ft
Heat Index 87 °F
Dew Point 72 °F
Humidity 70%
Rainfall 0.00 in
Snow Depth Not available.
5:40 AM 5:20 PM
Waxing Crescent, 10% visible
METAR SBSV 290200Z 15009KT 9999 SCT023 28/22 Q1016
Pressure 30.01 in
Visibility 6.2 miles
Clouds Scattered Clouds 2300 ft
Heat Index 87 °F
Dew Point 72 °F
Humidity 70%
Rainfall 0.00 in
Snow Depth Not available.
5:40 AM 5:20 PM
Waxing Crescent, 10% visible
METAR SBSV 290200Z 15009KT 9999 SCT023 28/22 Q1016

Get Severe Weather Alerts

Thanks for signing up!

Be on the lookout for a verification email in your inbox.

You'll start receiving the daily forecast at 8 AM.

×

10-Day Weather Forecast

No radar image for this location.
×

Almanac

Astronomy

Apr. 28, 2017 Rise Set
Actual Time
Civil Twilight
Nautical Twilight
Astronomical Twilight
Moon
Length of Visible Light
Length of Day
Tomorrow will be .
, % of the Moon is Illuminated

Today's Extremes

Country Highs Country Lows

Community

WunderPhotos

WunderBlog® & News

Nearby

Air Quality

  Air Quality AQ Index Pollutant
Not available.

Snow Depth

Station Depth Elevation

Earthquake Activity

City Distance Mag. Time & Date
Minimum magnitude displayed is 2.5.

Coastal Water Temperatures

Place Temperature

Stations

Nearby Weather Stations

Station Location Temp. Windchill Dew Point Humidity Wind Precip. Elev Updated Type